Time;durP1;ratioP1;P1;durP2;ratioP2;P2;SDS_P1;SDS_P2;PMS_P1;PMS_P2;Temp;Humidity;BMP_temperature;BMP_pressure;BME280_temperature;BME280_humidity;BME280_pressure;Samples;Min_cycle;Max_cycle;Signal;HPM_P1;HPM_P2
2023/04/07 00:01:22;;;;;;;55.63;40.33;;;7.00;99.90;;;;;;7369766;19;20017;-62
2023/04/07 00:03:49;;;;;;;54.47;38.55;;;7.10;99.90;;;;;;7368146;19;20022;-63
2023/04/07 00:06:15;;;;;;;54.95;38.70;;;7.10;99.90;;;;;;7368326;19;20047;-62
2023/04/07 00:08:42;;;;;;;61.03;41.38;;;7.10;99.90;;;;;;7368806;19;20026;-63
2023/04/07 00:11:08;;;;;;;62.03;42.30;;;7.10;99.90;;;;;;7370520;19;20737;-62
2023/04/07 00:13:34;;;;;;;59.08;39.60;;;7.10;99.90;;;;;;7372379;19;20014;-62
2023/04/07 00:16:00;;;;;;;56.58;40.90;;;7.10;99.90;;;;;;7370610;19;20015;-62
2023/04/07 00:18:26;;;;;;;60.83;41.80;;;7.10;99.90;;;;;;7371504;19;20018;-61
2023/04/07 00:20:53;;;;;;;65.70;43.50;;;7.10;99.90;;;;;;7369092;19;20018;-62
2023/04/07 00:23:20;;;;;;;59.08;41.35;;;7.10;99.90;;;;;;7373182;19;20026;-59
2023/04/07 00:26:06;;;;;;;56.58;40.67;;;7.10;99.90;;;;;;7371336;19;20014;-60
2023/04/07 00:28:36;;;;;;;60.72;42.58;;;7.10;99.90;;;;;;7371073;19;20019;-59
2023/04/07 00:31:10;;;;;;;70.53;44.95;;;7.10;99.90;;;;;;7369275;19;20022;-60
2023/04/07 00:33:38;;;;;;;67.88;45.70;;;7.10;99.90;;;;;;7366791;19;20026;-61
2023/04/07 00:36:05;;;;;;;61.60;39.75;;;7.10;99.90;;;;;;7365566;19;20490;-61
2023/04/07 00:38:31;;;;;;;62.30;42.15;;;7.10;99.90;;;;;;7370163;19;20015;-59
2023/04/07 00:40:59;;;;;;;66.07;41.47;;;7.10;99.90;;;;;;7364907;19;20018;-60
2023/04/07 00:43:27;;;;;;;62.30;41.90;;;7.00;99.90;;;;;;7365815;19;20796;-59
2023/04/07 00:45:55;;;;;;;67.95;44.72;;;7.10;99.90;;;;;;7363346;19;21631;-59
2023/04/07 00:48:22;;;;;;;65.88;42.40;;;7.10;99.90;;;;;;7367204;19;20406;-60
2023/04/07 00:50:48;;;;;;;74.43;45.90;;;7.10;99.90;;;;;;7365761;19;20022;-60
2023/04/07 00:53:15;;;;;;;69.40;43.85;;;7.10;99.90;;;;;;7367983;19;20018;-60
2023/04/07 00:55:42;;;;;;;82.10;47.28;;;7.10;99.90;;;;;;7369535;19;20018;-59
2023/04/07 00:58:08;;;;;;;72.25;45.28;;;7.10;99.90;;;;;;7369232;19;20023;-60
2023/04/07 01:00:48;;;;;;;67.13;43.90;;;7.00;99.90;;;;;;7365620;19;20030;-60
2023/04/07 01:03:22;;;;;;;70.45;44.15;;;7.10;99.90;;;;;;7362168;19;20046;-60
2023/04/07 01:06:01;;;;;;;70.28;45.13;;;7.10;99.90;;;;;;7367572;19;20897;-60
2023/04/07 01:08:46;;;;;;;81.50;44.97;;;7.00;99.90;;;;;;7370216;19;20829;-59
2023/04/07 01:11:24;;;;;;;69.10;45.20;;;7.00;99.90;;;;;;7372262;19;20019;-59
2023/04/07 01:13:53;;;;;;;65.60;43.63;;;7.10;99.90;;;;;;7368056;19;20679;-63
2023/04/07 01:16:56;;;;;;;66.00;43.50;;;7.10;99.90;;;;;;7369840;19;20079;-60
2023/04/07 01:19:42;;;;;;;67.35;44.35;;;7.10;99.90;;;;;;7370843;19;20015;-60
2023/04/07 01:22:19;;;;;;;64.03;42.53;;;7.10;99.90;;;;;;7368486;19;20032;-60
2023/04/07 01:25:23;;;;;;;68.82;40.33;;;7.10;99.90;;;;;;7366509;19;20114;-60
2023/04/07 01:28:33;;;;;;;58.45;39.70;;;7.10;99.90;;;;;;7367008;19;20074;-60
2023/04/07 01:31:02;;;;;;;65.57;42.95;;;7.00;99.90;;;;;;7366225;19;20457;-60
2023/04/07 01:33:31;;;;;;;65.43;41.90;;;7.10;99.90;;;;;;7362709;19;20021;-60
2023/04/07 01:36:00;;;;;;;59.67;39.67;;;7.00;99.90;;;;;;7363986;19;20019;-60
2023/04/07 01:38:40;;;;;;;70.18;42.47;;;7.10;99.90;;;;;;7366583;19;20546;-60
2023/04/07 01:41:13;;;;;;;76.65;44.42;;;7.10;99.90;;;;;;7361850;19;20018;-61
2023/04/07 01:43:40;;;;;;;71.30;44.35;;;7.10;99.90;;;;;;7361808;19;20025;-60
2023/04/07 01:46:15;;;;;;;71.85;42.25;;;7.10;99.90;;;;;;7364606;19;20026;-61
2023/04/07 01:49:02;;;;;;;67.90;42.55;;;7.10;99.90;;;;;;7364595;19;20022;-61
2023/04/07 01:51:32;;;;;;;79.72;45.97;;;7.10;99.90;;;;;;7363868;19;20014;-61
2023/04/07 01:54:12;;;;;;;77.38;44.47;;;7.00;99.90;;;;;;7366425;19;20067;-60
2023/04/07 01:57:00;;;;;;;65.95;41.78;;;7.10;99.90;;;;;;7367749;19;20022;-65
2023/04/07 01:59:27;;;;;;;65.60;42.13;;;7.10;99.90;;;;;;7367490;19;20019;-61
2023/04/07 02:01:54;;;;;;;75.28;44.17;;;7.10;99.90;;;;;;7366021;19;20015;-59
2023/04/07 02:04:25;;;;;;;69.20;41.67;;;7.10;99.90;;;;;;7368167;19;20022;-59
2023/04/07 02:06:58;;;;;;;65.30;41.72;;;7.10;99.90;;;;;;7367791;19;20018;-60
2023/04/07 02:09:37;;;;;;;64.60;40.45;;;7.10;99.90;;;;;;7367900;19;20552;-59
2023/04/07 02:12:06;;;;;;;65.63;42.08;;;7.00;99.90;;;;;;7364939;19;20163;-60
2023/04/07 02:14:37;;;;;;;66.60;41.88;;;7.10;99.90;;;;;;7368659;19;20023;-60
2023/04/07 02:17:08;;;;;;;70.03;41.70;;;7.10;99.90;;;;;;7366104;19;20014;-60
2023/04/07 02:19:35;;;;;;;66.70;43.33;;;7.10;99.90;;;;;;7368562;19;20019;-60
2023/04/07 02:22:04;;;;;;;68.72;43.28;;;7.00;99.90;;;;;;7373114;19;20018;-62
2023/04/07 02:24:30;;;;;;;68.43;43.67;;;7.10;99.90;;;;;;7375450;19;20022;-62
2023/04/07 02:26:57;;;;;;;73.65;43.65;;;7.10;99.90;;;;;;7370477;19;20022;-60
2023/04/07 02:29:24;;;;;;;62.95;42.63;;;7.10;99.90;;;;;;7372058;19;20485;-60
2023/04/07 02:31:50;;;;;;;74.15;42.78;;;7.10;99.90;;;;;;7370080;19;20014;-60
2023/04/07 02:34:17;;;;;;;74.35;43.50;;;7.10;99.90;;;;;;7370836;19;20031;-60
2023/04/07 02:36:43;;;;;;;68.70;41.10;;;7.10;99.90;;;;;;7370466;19;20118;-59
2023/04/07 02:39:10;;;;;;;73.82;43.53;;;7.10;99.90;;;;;;7368731;19;20019;-59
2023/04/07 02:41:37;;;;;;;69.45;42.83;;;7.10;99.90;;;;;;7373917;19;20596;-60
2023/04/07 02:44:03;;;;;;;71.75;43.92;;;7.10;99.90;;;;;;7367423;19;20018;-63
2023/04/07 02:46:29;;;;;;;69.38;43.22;;;7.10;99.90;;;;;;7362754;19;20023;-62
2023/04/07 02:48:56;;;;;;;76.30;44.83;;;7.10;99.90;;;;;;7373021;19;20014;-62
2023/04/07 02:51:23;;;;;;;61.92;39.92;;;7.10;99.90;;;;;;7374578;19;20021;-63
2023/04/07 02:53:54;;;;;;;68.20;39.90;;;7.10;99.90;;;;;;7373539;19;20026;-63
2023/04/07 02:56:22;;;;;;;62.10;40.60;;;7.10;99.90;;;;;;7374964;19;20061;-61
2023/04/07 02:58:49;;;;;;;67.78;43.50;;;7.10;99.90;;;;;;7372704;19;20874;-60
2023/04/07 03:01:16;;;;;;;69.22;43.33;;;7.10;99.90;;;;;;7367671;19;20049;-63
2023/04/07 03:03:43;;;;;;;69.28;43.50;;;7.10;99.90;;;;;;7374439;19;20022;-63
2023/04/07 03:06:17;;;;;;;73.25;44.03;;;7.10;99.90;;;;;;7372658;19;20019;-61
2023/04/07 03:09:00;;;;;;;68.05;41.35;;;7.10;99.90;;;;;;7369510;19;20103;-59
2023/04/07 03:11:26;;;;;;;76.63;44.47;;;7.10;99.90;;;;;;7370820;19;20018;-60
2023/04/07 03:13:54;;;;;;;86.40;46.08;;;7.10;99.90;;;;;;7366416;19;20029;-60
2023/04/07 03:16:20;;;;;;;68.20;44.72;;;7.10;99.90;;;;;;7368889;19;20006;-61
2023/04/07 03:19:15;;;;;;;76.25;44.50;;;7.10;99.90;;;;;;7365639;19;20022;-60
2023/04/07 03:21:49;;;;;;;70.78;46.53;;;7.10;99.90;;;;;;7366595;19;20024;-60
2023/04/07 03:24:16;;;;;;;62.75;42.50;;;7.10;99.90;;;;;;7364639;19;20044;-62
2023/04/07 03:26:42;;;;;;;69.35;43.47;;;7.10;99.90;;;;;;7368831;19;20029;-63
2023/04/07 03:29:18;;;;;;;66.70;43.85;;;7.10;99.90;;;;;;7369648;19;20028;-62
2023/04/07 03:31:45;;;;;;;66.10;42.35;;;7.10;99.90;;;;;;7368633;19;20010;-62
2023/04/07 03:34:14;;;;;;;79.50;44.67;;;7.10;99.90;;;;;;7369275;19;20493;-62
2023/04/07 03:36:40;;;;;;;61.63;41.40;;;7.10;99.90;;;;;;7370944;19;20014;-62
2023/04/07 03:39:07;;;;;;;66.43;41.63;;;7.10;99.90;;;;;;7368838;19;20019;-62
2023/04/07 03:41:34;;;;;;;67.88;40.75;;;7.10;99.90;;;;;;7370371;19;20018;-60
2023/04/07 03:44:02;;;;;;;67.65;43.28;;;7.10;99.90;;;;;;7367651;19;20068;-60
2023/04/07 03:46:30;;;;;;;78.63;46.78;;;7.10;99.90;;;;;;7366120;19;20803;-60
2023/04/07 03:48:57;;;;;;;77.35;45.25;;;7.10;99.90;;;;;;7363561;19;20023;-63
2023/04/07 03:51:24;;;;;;;77.85;44.20;;;7.10;99.90;;;;;;7363857;19;20025;-60
2023/04/07 03:53:54;;;;;;;79.10;46.05;;;7.10;99.90;;;;;;7364799;19;20047;-63
2023/04/07 03:56:38;;;;;;;72.32;44.55;;;7.10;99.90;;;;;;7366503;19;20019;-62
2023/04/07 03:59:05;;;;;;;77.82;46.90;;;7.10;99.90;;;;;;7364932;19;20582;-62
2023/04/07 04:01:36;;;;;;;78.10;46.95;;;7.10;99.90;;;;;;7366500;19;20025;-60
2023/04/07 04:04:10;;;;;;;79.75;46.30;;;7.10;99.90;;;;;;7365152;19;20894;-62
2023/04/07 04:06:36;;;;;;;72.18;42.63;;;7.10;99.90;;;;;;7367189;19;20018;-62
2023/04/07 04:09:11;;;;;;;77.18;44.65;;;7.10;99.90;;;;;;7363614;19;20078;-62
2023/04/07 04:11:43;;;;;;;70.72;45.47;;;7.10;99.90;;;;;;7364920;19;20380;-63
2023/04/07 04:14:11;;;;;;;70.97;43.47;;;7.10;99.90;;;;;;7366237;19;20482;-63
2023/04/07 04:16:38;;;;;;;66.60;42.38;;;7.10;99.90;;;;;;7368227;19;20030;-63
2023/04/07 04:19:13;;;;;;;69.07;41.55;;;7.10;99.90;;;;;;7367453;19;20600;-63
2023/04/07 04:21:39;;;;;;;63.13;40.20;;;7.00;99.90;;;;;;7364009;19;20010;-62
2023/04/07 04:24:07;;;;;;;60.20;41.03;;;7.10;99.90;;;;;;7369949;19;20028;-63
2023/04/07 04:26:33;;;;;;;65.82;42.17;;;7.00;99.90;;;;;;7357022;19;20019;-63
2023/04/07 04:29:06;;;;;;;67.47;42.92;;;7.00;99.90;;;;;;7363390;19;20644;-64
2023/04/07 04:31:32;;;;;;;56.40;39.03;;;7.00;99.90;;;;;;7362437;19;20034;-62
2023/04/07 04:34:00;;;;;;;64.43;40.90;;;7.00;99.90;;;;;;7363581;19;20019;-60
2023/04/07 04:36:27;;;;;;;68.75;43.05;;;7.00;99.90;;;;;;7364834;19;20484;-63
2023/04/07 04:38:58;;;;;;;71.27;43.40;;;7.00;99.90;;;;;;7361494;19;20026;-63
2023/04/07 04:41:24;;;;;;;66.95;42.75;;;7.00;99.90;;;;;;7367018;19;20617;-60
2023/04/07 04:43:51;;;;;;;76.43;44.17;;;7.00;99.90;;;;;;7365149;19;20023;-60
2023/04/07 04:46:23;;;;;;;71.83;42.50;;;7.00;99.90;;;;;;7367733;19;20706;-63
2023/04/07 04:48:51;;;;;;;57.63;37.55;;;7.00;99.90;;;;;;7364874;19;21927;-62
2023/04/07 04:51:19;;;;;;;66.05;42.50;;;7.00;99.90;;;;;;7362100;19;20022;-63
2023/04/07 04:54:02;;;;;;;67.68;43.30;;;7.00;99.90;;;;;;7360482;19;20095;-63
2023/04/07 04:56:29;;;;;;;67.95;41.25;;;7.00;99.90;;;;;;7359748;19;20057;-63
2023/04/07 04:58:55;;;;;;;68.97;42.28;;;7.00;99.90;;;;;;7358438;19;20025;-62
2023/04/07 05:01:39;;;;;;;74.63;44.17;;;7.00;99.90;;;;;;7361129;19;20054;-62
2023/04/07 05:04:09;;;;;;;72.65;42.22;;;7.00;99.90;;;;;;7361402;19;20022;-62
2023/04/07 05:06:37;;;;;;;78.70;42.63;;;7.00;99.90;;;;;;7365662;19;20023;-59
2023/04/07 05:09:08;;;;;;;82.68;44.25;;;7.00;99.90;;;;;;7363107;19;20026;-59
2023/04/07 05:11:42;;;;;;;74.55;43.92;;;7.00;99.90;;;;;;7360989;19;20030;-60
2023/04/07 05:14:09;;;;;;;71.68;42.92;;;7.00;99.90;;;;;;7363615;19;20064;-61
2023/04/07 05:16:38;;;;;;;71.38;43.53;;;7.00;99.90;;;;;;7363508;19;20041;-60
2023/04/07 05:19:05;;;;;;;68.43;43.78;;;7.00;99.90;;;;;;7362231;19;20015;-60
2023/04/07 05:21:32;;;;;;;70.10;43.65;;;7.00;99.90;;;;;;7360038;19;20101;-59
2023/04/07 05:24:03;;;;;;;68.70;42.88;;;7.00;99.90;;;;;;7360092;19;20387;-59
2023/04/07 05:26:32;;;;;;;68.45;43.45;;;7.00;99.90;;;;;;7363468;19;20024;-59
2023/04/07 05:29:01;;;;;;;70.20;44.78;;;7.00;99.90;;;;;;7358714;19;20044;-59
2023/04/07 05:31:34;;;;;;;61.15;37.42;;;7.00;99.90;;;;;;7360806;19;20026;-59
2023/04/07 05:34:02;;;;;;;70.93;45.83;;;7.00;99.90;;;;;;7359537;19;20026;-59
2023/04/07 05:36:36;;;;;;;77.55;45.97;;;7.00;99.90;;;;;;7362767;19;20018;-59
2023/04/07 05:39:02;;;;;;;76.00;46.15;;;7.00;99.90;;;;;;7358481;19;20010;-59
2023/04/07 05:41:29;;;;;;;63.97;44.15;;;7.00;99.90;;;;;;7358241;19;20022;-60
2023/04/07 05:43:56;;;;;;;67.25;43.40;;;7.00;99.90;;;;;;7357301;19;20019;-61
2023/04/07 05:46:23;;;;;;;71.63;45.28;;;7.00;99.90;;;;;;7363472;19;20026;-59
2023/04/07 05:48:54;;;;;;;71.68;45.33;;;7.00;99.90;;;;;;7363541;19;20042;-59
2023/04/07 05:51:21;;;;;;;72.20;46.17;;;7.00;99.90;;;;;;7366126;19;20042;-60
2023/04/07 05:53:49;;;;;;;72.25;45.55;;;7.00;99.90;;;;;;7365426;19;20022;-62
2023/04/07 05:56:16;;;;;;;75.38;46.05;;;7.00;99.90;;;;;;7369413;19;20043;-59
2023/04/07 05:58:49;;;;;;;76.32;46.83;;;6.90;99.90;;;;;;7368377;19;20019;-59
2023/04/07 06:01:16;;;;;;;68.90;44.38;;;7.00;99.90;;;;;;7366725;19;20018;-62
2023/04/07 06:03:43;;;;;;;70.03;46.65;;;6.90;99.90;;;;;;7365890;19;20022;-62
2023/04/07 06:06:30;;;;;;;61.75;42.10;;;7.00;99.90;;;;;;7371655;19;20478;-62
2023/04/07 06:08:56;;;;;;;69.03;43.25;;;7.00;99.90;;;;;;7367829;19;20022;-62
2023/04/07 06:11:25;;;;;;;70.97;44.90;;;7.00;99.90;;;;;;7368473;19;20023;-62
2023/04/07 06:13:53;;;;;;;71.15;43.28;;;7.00;99.90;;;;;;7366164;19;20709;-62
2023/04/07 06:16:31;;;;;;;69.30;47.15;;;7.00;99.90;;;;;;7368253;19;20779;-64
2023/04/07 06:18:57;;;;;;;70.03;43.50;;;7.00;99.90;;;;;;7366750;19;20014;-63
2023/04/07 06:21:26;;;;;;;69.63;42.00;;;7.20;99.90;;;;;;7367153;19;20015;-63
2023/04/07 06:23:54;;;;;;;61.40;42.03;;;7.20;99.90;;;;;;7369585;19;20046;-63
2023/04/07 06:26:38;;;;;;;59.40;41.90;;;7.20;99.90;;;;;;7371074;19;20129;-63
2023/04/07 06:29:08;;;;;;;65.43;41.45;;;7.20;99.90;;;;;;7368983;19;20090;-64
2023/04/07 06:31:36;;;;;;;54.40;39.35;;;7.20;99.90;;;;;;7360216;19;20018;-64
2023/04/07 06:34:03;;;;;;;59.00;40.70;;;7.20;99.90;;;;;;7365507;19;20477;-60
2023/04/07 06:36:29;;;;;;;60.35;39.90;;;7.20;99.90;;;;;;7371237;19;20693;-59
2023/04/07 06:39:16;;;;;;;56.85;39.38;;;7.30;99.90;;;;;;7368644;19;20140;-65
2023/04/07 06:42:02;;;;;;;53.00;37.85;;;7.30;99.90;;;;;;7369648;19;20060;-63
2023/04/07 06:44:29;;;;;;;52.08;37.75;;;7.30;99.90;;;;;;7363181;19;20078;-62
2023/04/07 06:47:00;;;;;;;60.92;41.60;;;7.40;99.90;;;;;;7371882;19;20015;-59
2023/04/07 06:49:27;;;;;;;49.45;35.22;;;7.40;99.90;;;;;;7372788;19;20078;-60
2023/04/07 06:51:54;;;;;;;52.95;38.63;;;7.50;99.90;;;;;;7370673;19;20462;-63
2023/04/07 06:54:20;;;;;;;43.70;36.10;;;7.50;99.90;;;;;;7371811;19;20473;-63
2023/04/07 06:56:47;;;;;;;48.90;35.55;;;7.50;99.90;;;;;;7370905;19;20022;-61
2023/04/07 06:59:13;;;;;;;44.45;34.15;;;7.50;99.90;;;;;;7372203;19;20025;-64
2023/04/07 07:01:41;;;;;;;43.50;35.28;;;7.40;99.90;;;;;;7368240;19;20039;-65
2023/04/07 07:04:07;;;;;;;46.38;35.90;;;7.40;99.90;;;;;;7371984;19;20014;-64
2023/04/07 07:06:34;;;;;;;43.65;36.78;;;7.50;99.90;;;;;;7372394;19;20010;-63
2023/04/07 07:09:20;;;;;;;42.95;33.83;;;7.50;99.90;;;;;;7373394;19;20026;-64
2023/04/07 07:11:46;;;;;;;46.67;35.35;;;7.50;99.90;;;;;;7373041;19;20019;-65
2023/04/07 07:14:12;;;;;;;50.03;37.72;;;7.50;99.90;;;;;;7373271;19;20018;-65
2023/04/07 07:16:40;;;;;;;45.30;35.65;;;7.60;99.90;;;;;;7371760;19;20022;-61
2023/04/07 07:19:06;;;;;;;45.30;34.95;;;7.60;99.90;;;;;;7371884;19;20022;-62
2023/04/07 07:21:35;;;;;;;45.10;34.70;;;7.70;99.90;;;;;;7369619;19;20581;-65
2023/04/07 07:24:01;;;;;;;39.83;34.15;;;7.70;99.90;;;;;;7370771;19;20640;-64
2023/04/07 07:26:37;;;;;;;36.47;32.00;;;7.80;99.90;;;;;;7370790;19;20019;-63
2023/04/07 07:29:06;;;;;;;42.33;33.30;;;7.80;99.90;;;;;;7371077;19;20014;-63
2023/04/07 07:31:32;;;;;;;39.90;31.77;;;7.80;99.90;;;;;;7371591;19;20026;-63
2023/04/07 07:34:15;;;;;;;35.92;30.75;;;7.90;99.90;;;;;;7371722;19;20733;-63
2023/04/07 07:36:41;;;;;;;35.67;30.50;;;7.90;99.90;;;;;;7369524;19;20378;-62
2023/04/07 07:39:08;;;;;;;32.75;29.20;;;7.90;99.90;;;;;;7372596;19;20022;-63
2023/04/07 07:41:34;;;;;;;34.88;29.83;;;7.90;99.90;;;;;;7369892;19;20068;-62
2023/04/07 07:44:01;;;;;;;34.28;30.65;;;7.90;99.90;;;;;;7373176;19;20014;-62
2023/04/07 07:46:27;;;;;;;30.63;27.33;;;7.90;99.90;;;;;;7367729;19;20026;-64
2023/04/07 07:48:56;;;;;;;33.90;28.92;;;7.90;99.90;;;;;;7370818;19;20029;-63
2023/04/07 07:51:22;;;;;;;31.35;27.85;;;8.00;99.90;;;;;;7369484;19;20015;-62
2023/04/07 07:53:52;;;;;;;33.72;30.05;;;8.10;99.90;;;;;;7371653;19;20022;-64
2023/04/07 07:56:18;;;;;;;31.60;27.73;;;8.10;99.90;;;;;;7370503;19;20018;-64
2023/04/07 07:58:49;;;;;;;29.58;26.42;;;8.20;99.90;;;;;;7372388;19;20021;-64
2023/04/07 08:01:15;;;;;;;28.40;25.35;;;8.30;99.90;;;;;;7366609;19;20376;-65
2023/04/07 08:03:42;;;;;;;32.58;29.02;;;8.30;99.90;;;;;;7366598;19;20034;-62
2023/04/07 08:06:09;;;;;;;32.75;29.23;;;8.50;99.90;;;;;;7365930;19;20022;-62
2023/04/07 08:08:56;;;;;;;28.10;25.15;;;8.60;99.90;;;;;;7369977;19;20018;-64
2023/04/07 08:11:42;;;;;;;29.42;26.23;;;8.70;99.90;;;;;;7365213;19;20141;-63
2023/04/07 08:14:29;;;;;;;27.45;24.55;;;8.70;99.90;;;;;;7368185;19;20030;-64
2023/04/07 08:16:55;;;;;;;27.60;24.05;;;8.80;99.90;;;;;;7368437;19;20035;-64
2023/04/07 08:19:22;;;;;;;26.45;23.67;;;8.90;99.90;;;;;;7371823;19;20014;-65
2023/04/07 08:21:48;;;;;;;26.38;23.70;;;8.90;99.90;;;;;;7369040;19;20023;-64
2023/04/07 08:24:15;;;;;;;23.60;21.02;;;8.90;99.90;;;;;;7367815;19;20019;-64
2023/04/07 08:26:41;;;;;;;24.65;22.10;;;8.90;99.90;;;;;;7369949;19;20018;-65
2023/04/07 08:29:07;;;;;;;25.25;22.17;;;8.90;99.90;;;;;;7365829;19;20090;-65
2023/04/07 08:31:33;;;;;;;26.55;23.77;;;8.80;99.90;;;;;;7365861;19;20596;-66
2023/04/07 08:34:00;;;;;;;25.27;22.73;;;8.90;99.90;;;;;;7368059;19;20022;-66
2023/04/07 08:36:26;;;;;;;27.40;24.65;;;8.90;99.90;;;;;;7369669;19;20018;-65
2023/04/07 08:38:53;;;;;;;28.75;25.67;;;8.90;99.90;;;;;;7371618;19;20099;-63
2023/04/07 08:41:28;;;;;;;26.88;24.15;;;8.90;99.90;;;;;;7365770;19;20022;-65
2023/04/07 08:43:56;;;;;;;28.67;25.77;;;8.90;99.90;;;;;;7367418;19;20022;-64
2023/04/07 08:46:25;;;;;;;28.35;25.63;;;8.90;99.90;;;;;;7365288;19;20018;-64
2023/04/07 08:48:56;;;;;;;27.92;25.15;;;9.00;99.90;;;;;;7369313;19;20028;-64
2023/04/07 08:51:31;;;;;;;26.95;24.10;;;9.00;99.90;;;;;;7366462;19;20023;-65
2023/04/07 08:54:12;;;;;;;29.35;26.55;;;9.00;99.90;;;;;;7364197;19;20062;-65
2023/04/07 08:56:40;;;;;;;27.40;24.67;;;9.10;99.90;;;;;;7367388;19;20029;-65
2023/04/07 08:59:10;;;;;;;29.90;26.90;;;9.10;99.90;;;;;;7368304;19;20089;-65
2023/04/07 09:01:36;;;;;;;29.67;26.95;;;9.10;99.90;;;;;;7364896;19;20018;-65
2023/04/07 09:04:03;;;;;;;30.17;27.25;;;9.10;99.90;;;;;;7366532;19;20486;-66
2023/04/07 09:06:32;;;;;;;31.27;28.17;;;9.10;99.90;;;;;;7367154;19;20018;-66
2023/04/07 09:09:05;;;;;;;31.52;28.42;;;9.20;99.90;;;;;;7365133;19;20030;-65
2023/04/07 09:11:36;;;;;;;28.23;25.42;;;9.20;99.90;;;;;;7366285;19;20612;-66
2023/04/07 09:14:02;;;;;;;30.80;27.90;;;9.20;99.90;;;;;;7368178;19;20026;-65
2023/04/07 09:16:30;;;;;;;30.70;27.70;;;9.20;99.90;;;;;;7361059;19;20026;-65
2023/04/07 09:18:56;;;;;;;26.92;24.23;;;9.10;99.90;;;;;;7369796;19;20018;-64
2023/04/07 09:21:23;;;;;;;30.98;27.95;;;9.20;99.90;;;;;;7362101;19;20802;-65
2023/04/07 09:23:49;;;;;;;30.80;27.60;;;9.10;99.90;;;;;;7364811;19;20029;-65
2023/04/07 09:26:21;;;;;;;29.92;26.92;;;9.20;99.90;;;;;;7370754;19;20021;-65
2023/04/07 09:28:50;;;;;;;29.25;26.15;;;9.20;99.90;;;;;;7370843;19;20034;-64
2023/04/07 09:31:17;;;;;;;29.55;26.55;;;9.30;99.90;;;;;;7372186;19;20386;-62
2023/04/07 09:33:43;;;;;;;29.15;26.25;;;9.30;99.90;;;;;;7366166;19;20498;-62
2023/04/07 09:36:09;;;;;;;32.05;28.83;;;9.40;99.90;;;;;;7366216;19;20077;-63
2023/04/07 09:38:37;;;;;;;28.48;25.60;;;9.30;99.90;;;;;;7369650;19;20017;-62
2023/04/07 09:41:16;;;;;;;29.38;26.40;;;9.30;99.90;;;;;;7368107;19;20027;-63
2023/04/07 09:43:45;;;;;;;24.80;22.15;;;9.40;99.90;;;;;;7368693;19;20018;-62
2023/04/07 09:46:18;;;;;;;25.45;22.85;;;9.40;99.90;;;;;;7371440;19;20528;-62
2023/04/07 09:48:45;;;;;;;26.05;23.45;;;9.40;99.90;;;;;;7371827;19;20481;-63
2023/04/07 09:51:14;;;;;;;25.10;22.50;;;9.50;99.90;;;;;;7370002;19;20536;-62
2023/04/07 09:53:49;;;;;;;25.85;23.20;;;9.50;99.90;;;;;;7366693;19;20486;-62
2023/04/07 09:56:16;;;;;;;25.67;22.92;;;9.60;99.90;;;;;;7367856;19;20064;-62
2023/04/07 09:58:45;;;;;;;26.48;23.77;;;9.60;99.90;;;;;;7365443;19;20135;-62
2023/04/07 10:01:32;;;;;;;22.45;20.25;;;9.70;99.90;;;;;;7367152;19;20019;-63
2023/04/07 10:03:58;;;;;;;21.02;18.85;;;9.80;99.90;;;;;;7364177;19;20882;-63
2023/04/07 10:06:29;;;;;;;21.02;18.38;;;9.80;99.90;;;;;;7370914;19;20029;-63
2023/04/07 10:08:56;;;;;;;20.05;17.95;;;9.70;99.90;;;;;;7372988;19;20026;-63
2023/04/07 10:11:23;;;;;;;17.08;15.30;;;9.80;99.90;;;;;;7372660;19;20018;-63
2023/04/07 10:13:50;;;;;;;15.45;13.90;;;9.70;99.90;;;;;;7368371;19;20827;-63
2023/04/07 10:16:17;;;;;;;14.85;13.35;;;9.80;99.90;;;;;;7372363;19;20077;-63
2023/04/07 10:18:43;;;;;;;12.05;10.75;;;9.80;99.90;;;;;;7366789;19;21073;-64
2023/04/07 10:21:14;;;;;;;13.02;11.73;;;9.70;99.90;;;;;;7367244;19;20059;-63
2023/04/07 10:24:03;;;;;;;12.18;10.98;;;9.90;99.90;;;;;;7370314;19;20018;-64
2023/04/07 10:26:33;;;;;;;11.80;10.63;;;9.90;99.90;;;;;;7375417;19;20094;-63
2023/04/07 10:29:05;;;;;;;11.47;10.33;;;10.00;99.90;;;;;;7371755;19;20451;-64
2023/04/07 10:31:32;;;;;;;11.38;10.18;;;9.90;99.90;;;;;;7371706;19;20014;-67
2023/04/07 10:34:00;;;;;;;11.23;10.15;;;9.90;99.90;;;;;;7366021;19;20893;-66
2023/04/07 10:36:27;;;;;;;10.63;9.60;;;9.90;99.90;;;;;;7365740;19;20014;-66
2023/04/07 10:39:08;;;;;;;9.85;8.55;;;9.80;99.90;;;;;;7373484;19;20019;-66
2023/04/07 10:41:39;;;;;;;10.23;9.05;;;9.80;99.90;;;;;;7368296;19;20014;-66
2023/04/07 10:44:39;;;;;;;10.88;9.80;;;9.80;99.90;;;;;;7369863;19;20025;-66
2023/04/07 10:47:08;;;;;;;9.65;8.60;;;10.00;99.90;;;;;;7366399;19;20030;-66
2023/04/07 10:49:37;;;;;;;8.43;7.53;;;10.30;99.90;;;;;;7370357;19;20037;-64
2023/04/07 10:52:10;;;;;;;9.25;8.35;;;10.80;99.90;;;;;;7367230;19;20013;-64
2023/04/07 10:54:37;;;;;;;8.32;7.07;;;11.00;99.90;;;;;;7369012;19;20014;-64
2023/04/07 10:57:17;;;;;;;7.80;7.00;;;11.10;99.90;;;;;;7368064;19;20078;-64
2023/04/07 11:00:10;;;;;;;7.13;6.40;;;11.10;99.90;;;;;;7368334;19;20030;-64
2023/04/07 11:02:38;;;;;;;8.60;6.65;;;10.80;99.90;;;;;;7366999;19;20779;-64
2023/04/07 11:05:06;;;;;;;9.13;7.47;;;10.60;99.90;;;;;;7367237;19;20019;-64
2023/04/07 11:07:43;;;;;;;10.98;9.88;;;10.50;99.90;;;;;;7373762;19;20029;-64
2023/04/07 11:10:15;;;;;;;9.50;8.45;;;10.30;99.90;;;;;;7370432;19;20023;-66
2023/04/07 11:12:42;;;;;;;9.70;8.70;;;10.10;99.90;;;;;;7372064;19;20624;-64
2023/04/07 11:15:27;;;;;;;11.05;9.40;;;10.00;99.90;;;;;;7365562;19;20014;-64
2023/04/07 11:18:26;;;;;;;10.68;9.27;;;9.90;99.90;;;;;;7370853;19;20494;-64
2023/04/07 11:20:57;;;;;;;11.02;9.38;;;9.90;99.90;;;;;;7367857;19;20030;-66
2023/04/07 11:23:27;;;;;;;11.18;9.98;;;9.80;99.90;;;;;;7370536;19;20501;-67
2023/04/07 11:26:03;;;;;;;10.93;9.70;;;9.80;99.90;;;;;;7369385;19;20121;-64
2023/04/07 11:28:30;;;;;;;13.70;9.73;;;9.80;99.90;;;;;;7365088;19;20044;-65
2023/04/07 11:30:57;;;;;;;11.52;9.20;;;9.70;99.90;;;;;;7371581;19;20033;-65
2023/04/07 11:33:26;;;;;;;9.00;7.20;;;9.70;99.90;;;;;;7364793;19;20082;-66
2023/04/07 11:36:13;;;;;;;9.50;8.52;;;9.70;99.90;;;;;;7366716;19;20128;-63
2023/04/07 11:38:42;;;;;;;9.70;8.57;;;9.70;99.90;;;;;;7366869;19;20025;-63
2023/04/07 11:41:13;;;;;;;9.65;8.20;;;9.70;99.90;;;;;;7368479;19;20031;-63
2023/04/07 11:43:40;;;;;;;10.68;8.30;;;9.60;99.90;;;;;;7367974;19;20026;-63
2023/04/07 11:46:09;;;;;;;9.63;8.52;;;9.70;99.90;;;;;;7362080;19;20068;-64
2023/04/07 11:48:36;;;;;;;10.30;9.30;;;9.70;99.90;;;;;;7369705;19;20022;-66
2023/04/07 11:51:03;;;;;;;11.30;10.10;;;9.70;99.90;;;;;;7367829;19;20486;-66
2023/04/07 11:53:31;;;;;;;10.48;9.38;;;9.70;99.90;;;;;;7367081;19;20021;-66
2023/04/07 11:56:03;;;;;;;10.95;9.48;;;9.70;99.90;;;;;;7369638;19;20014;-67
2023/04/07 11:58:29;;;;;;;10.65;9.55;;;9.80;99.90;;;;;;7369449;19;20674;-66
2023/04/07 12:00:57;;;;;;;10.93;9.35;;;9.90;99.90;;;;;;7367493;19;20545;-66
2023/04/07 12:03:24;;;;;;;10.60;9.20;;;9.90;99.90;;;;;;7366845;19;20022;-66
2023/04/07 12:05:51;;;;;;;11.20;10.10;;;10.00;99.90;;;;;;7367486;19;20028;-66
2023/04/07 12:08:17;;;;;;;11.82;10.52;;;10.00;99.90;;;;;;7369391;19;20489;-66
2023/04/07 12:10:44;;;;;;;12.45;9.77;;;10.00;99.90;;;;;;7368175;19;20109;-67
2023/04/07 12:13:13;;;;;;;12.10;10.80;;;10.00;99.90;;;;;;7365797;19;20024;-66
2023/04/07 12:15:39;;;;;;;11.75;10.50;;;10.00;99.90;;;;;;7367598;19;20019;-66
2023/04/07 12:18:05;;;;;;;12.90;11.60;;;10.00;99.90;;;;;;7368776;19;20027;-66
2023/04/07 12:20:31;;;;;;;12.38;10.93;;;10.00;99.90;;;;;;7372626;19;20028;-66
2023/04/07 12:22:59;;;;;;;12.48;11.23;;;10.00;99.90;;;;;;7362624;19;20110;-66
2023/04/07 12:25:26;;;;;;;11.48;10.32;;;10.00;99.90;;;;;;7367546;19;20959;-66
2023/04/07 12:27:52;;;;;;;13.55;11.35;;;10.00;99.90;;;;;;7366838;19;20026;-66
2023/04/07 12:30:18;;;;;;;13.82;11.18;;;10.10;99.90;;;;;;7370324;19;20025;-67
2023/04/07 12:32:45;;;;;;;13.95;12.20;;;10.20;99.90;;;;;;7367535;19;20371;-66
2023/04/07 12:35:11;;;;;;;12.60;11.30;;;10.30;99.90;;;;;;7368890;19;20022;-66
2023/04/07 12:37:37;;;;;;;11.95;10.75;;;10.30;99.90;;;;;;7368152;19;20019;-64
2023/04/07 12:40:04;;;;;;;12.15;10.95;;;10.40;99.90;;;;;;7365868;19;20043;-65
2023/04/07 12:42:30;;;;;;;11.25;10.07;;;10.40;99.90;;;;;;7367997;19;20531;-63
2023/04/07 12:44:56;;;;;;;11.75;10.02;;;10.60;99.90;;;;;;7367806;19;20019;-63
2023/04/07 12:47:22;;;;;;;12.80;10.18;;;10.60;99.90;;;;;;7373034;19;20026;-63
2023/04/07 12:49:49;;;;;;;11.63;9.93;;;10.70;99.90;;;;;;7371109;19;20019;-64
2023/04/07 12:52:15;;;;;;;11.52;9.70;;;10.90;99.90;;;;;;7367220;19;20010;-64
2023/04/07 12:54:44;;;;;;;10.02;8.77;;;10.90;99.90;;;;;;7371196;19;20517;-64